createdAt,value
2023-04-07T00:02:05.296Z,1.50
2023-04-07T00:04:31.870Z,1.70
2023-04-07T00:06:58.426Z,1.70
2023-04-07T00:09:24.976Z,1.60
2023-04-07T00:11:51.827Z,1.50
2023-04-07T00:14:18.335Z,1.40
2023-04-07T00:16:44.828Z,1.30
2023-04-07T00:19:11.322Z,1.20
2023-04-07T00:21:37.810Z,1.20
2023-04-07T00:24:04.514Z,1.10
2023-04-07T00:26:32.191Z,1.00
2023-04-07T00:28:59.343Z,1.00
2023-04-07T00:31:26.332Z,0.90
2023-04-07T00:33:53.057Z,0.80
2023-04-07T00:36:19.962Z,0.70
2023-04-07T00:38:46.564Z,0.70
2023-04-07T00:41:13.114Z,0.70
2023-04-07T00:43:39.561Z,0.70
2023-04-07T00:46:06.159Z,0.70
2023-04-07T00:48:32.953Z,0.60
2023-04-07T00:50:59.463Z,0.70
2023-04-07T00:53:25.966Z,0.50
2023-04-07T00:55:55.541Z,0.50
2023-04-07T00:58:22.003Z,0.50
2023-04-07T01:03:18.084Z,0.70
2023-04-07T01:06:02.319Z,0.80
2023-04-07T01:09:34.255Z,0.70
2023-04-07T01:15:02.208Z,0.70
2023-04-07T01:17:29.159Z,0.80
2023-04-07T01:20:10.278Z,0.80
2023-04-07T01:22:56.666Z,0.80
2023-04-07T01:26:38.907Z,0.70
2023-04-07T01:29:49.856Z,0.80
2023-04-07T01:32:20.045Z,1.10
2023-04-07T01:34:51.035Z,1.20
2023-04-07T01:37:18.462Z,1.30
2023-04-07T01:39:45.102Z,1.20
2023-04-07T01:42:14.754Z,1.20
2023-04-07T01:44:42.546Z,1.10
2023-04-07T01:47:09.759Z,1.00
2023-04-07T01:49:38.403Z,1.10
2023-04-07T01:52:05.913Z,1.10
2023-04-07T01:54:33.842Z,1.10
2023-04-07T01:57:00.904Z,1.10
2023-04-07T01:59:27.860Z,1.10
2023-04-07T02:01:54.620Z,1.20
2023-04-07T02:04:51.968Z,1.30
2023-04-07T02:07:28.755Z,1.30
2023-04-07T02:10:01.907Z,1.30
2023-04-07T02:12:32.533Z,1.40
2023-04-07T02:15:00.715Z,1.30
2023-04-07T02:17:29.619Z,1.20
2023-04-07T02:19:58.280Z,1.30
2023-04-07T02:22:26.491Z,1.40
2023-04-07T02:24:52.998Z,1.40
2023-04-07T02:27:19.988Z,1.40
2023-04-07T02:29:46.564Z,1.40
2023-04-07T02:32:13.039Z,1.40
2023-04-07T02:34:41.247Z,1.50
2023-04-07T02:37:07.736Z,1.50
2023-04-07T02:39:34.297Z,1.30
2023-04-07T02:42:00.831Z,1.20
2023-04-07T02:44:27.335Z,1.20
2023-04-07T02:46:53.797Z,1.10
2023-04-07T02:49:20.264Z,1.20
2023-04-07T02:51:46.742Z,1.30
2023-04-07T02:54:13.232Z,1.50
2023-04-07T02:56:39.699Z,1.50
2023-04-07T02:59:06.464Z,1.50
2023-04-07T03:01:34.158Z,1.40
2023-04-07T03:04:00.866Z,1.40
2023-04-07T03:06:27.605Z,1.40
2023-04-07T03:08:54.110Z,1.50
2023-04-07T03:11:20.616Z,1.50
2023-04-07T03:13:47.120Z,1.40
2023-04-07T03:16:13.611Z,1.40
2023-04-07T03:18:40.154Z,1.40
2023-04-07T03:21:06.792Z,1.40
2023-04-07T03:23:33.268Z,1.30
2023-04-07T03:25:59.747Z,1.30
2023-04-07T03:28:26.229Z,1.30
2023-04-07T03:30:52.735Z,1.20
2023-04-07T03:33:19.668Z,1.30
2023-04-07T03:35:46.142Z,1.40
2023-04-07T03:38:12.624Z,1.40
2023-04-07T03:40:41.317Z,1.30
2023-04-07T03:43:11.770Z,1.20
2023-04-07T03:45:38.565Z,1.10
2023-04-07T03:48:05.518Z,1.00
2023-04-07T03:50:32.010Z,0.90
2023-04-07T03:52:58.490Z,0.90
2023-04-07T03:55:25.273Z,0.80
2023-04-07T03:57:51.755Z,0.80
2023-04-07T04:00:18.433Z,0.70
2023-04-07T04:02:45.037Z,0.80
2023-04-07T04:05:11.577Z,0.90
2023-04-07T04:07:38.069Z,0.80
2023-04-07T04:10:07.232Z,0.60
2023-04-07T04:12:33.733Z,0.50
2023-04-07T04:15:00.257Z,0.50
2023-04-07T04:17:26.801Z,0.50
2023-04-07T04:19:54.491Z,0.30
2023-04-07T04:22:21.130Z,0.30
2023-04-07T04:24:47.627Z,0.40
2023-04-07T04:27:14.106Z,0.40
2023-04-07T04:29:40.586Z,0.30
2023-04-07T04:32:07.095Z,0.30
2023-04-07T04:34:33.647Z,0.10
2023-04-07T04:37:00.400Z,0.00
2023-04-07T04:39:26.955Z,0.10
2023-04-07T04:41:53.433Z,0.30
2023-04-07T04:44:19.919Z,0.30
2023-04-07T04:46:46.405Z,0.30
2023-04-07T04:49:13.932Z,0.20
2023-04-07T04:51:40.433Z,0.20
2023-04-07T04:54:06.939Z,0.20
2023-04-07T04:56:33.710Z,0.30
2023-04-07T04:59:00.222Z,0.40
2023-04-07T05:01:26.740Z,0.50
2023-04-07T05:03:53.545Z,0.50
2023-04-07T05:06:20.655Z,0.40
2023-04-07T05:08:47.162Z,0.40
2023-04-07T05:11:13.671Z,0.50
2023-04-07T05:13:40.150Z,0.60
2023-04-07T05:16:07.184Z,0.70
2023-04-07T05:18:33.684Z,0.80
2023-04-07T05:21:01.270Z,0.80
2023-04-07T05:23:27.830Z,0.80
2023-04-07T05:25:54.327Z,1.00
2023-04-07T05:28:20.947Z,1.10
2023-04-07T05:30:47.996Z,1.20
2023-04-07T05:33:14.707Z,1.20
2023-04-07T05:35:41.346Z,1.20
2023-04-07T05:38:07.852Z,1.20
2023-04-07T05:40:36.894Z,1.30
2023-04-07T05:43:03.968Z,1.20
2023-04-07T05:45:30.533Z,1.20
2023-04-07T05:47:57.097Z,1.30
2023-04-07T05:50:23.596Z,1.40
2023-04-07T05:52:50.160Z,1.60
2023-04-07T05:55:16.693Z,1.70
2023-04-07T05:57:43.166Z,2.10
2023-04-07T06:00:10.872Z,2.30
2023-04-07T06:02:39.164Z,2.60
2023-04-07T06:05:06.854Z,3.00
2023-04-07T06:07:33.459Z,3.30
2023-04-07T06:10:00.184Z,3.50
2023-04-07T06:12:26.644Z,3.80
2023-04-07T06:14:55.535Z,3.90
2023-04-07T06:17:23.506Z,4.00
2023-04-07T06:19:50.042Z,4.00
2023-04-07T06:22:16.589Z,3.90
2023-04-07T06:24:43.096Z,3.80
2023-04-07T06:27:09.606Z,3.80
2023-04-07T06:29:36.119Z,3.80
2023-04-07T06:32:02.603Z,3.80
2023-04-07T06:34:29.085Z,3.90
2023-04-07T06:36:58.091Z,4.00
2023-04-07T06:39:27.116Z,4.10
2023-04-07T06:41:53.620Z,4.30
2023-04-07T06:44:20.239Z,4.30
2023-04-07T06:46:49.568Z,4.40
2023-04-07T06:49:16.094Z,4.60
2023-04-07T06:51:42.589Z,4.70
2023-04-07T06:54:12.150Z,4.90
2023-04-07T06:56:39.532Z,5.00
2023-04-07T06:59:06.152Z,5.10
2023-04-07T07:01:33.466Z,5.20
2023-04-07T07:04:00.737Z,5.40
2023-04-07T07:06:27.700Z,5.40
2023-04-07T07:08:54.299Z,5.60
2023-04-07T07:11:20.801Z,5.70
2023-04-07T07:13:47.398Z,5.70
2023-04-07T07:16:14.189Z,6.00
2023-04-07T07:18:40.724Z,6.10
2023-04-07T07:21:08.205Z,6.30
2023-04-07T07:23:34.778Z,6.40
2023-04-07T07:26:02.399Z,6.60
2023-04-07T07:28:28.904Z,6.80
2023-04-07T07:30:55.746Z,7.00
2023-04-07T07:33:22.248Z,7.10
2023-04-07T07:35:48.917Z,7.10
2023-04-07T07:38:15.462Z,7.10
2023-04-07T07:40:41.926Z,7.40
2023-04-07T07:43:08.445Z,7.50
2023-04-07T07:45:34.924Z,7.60
2023-04-07T07:48:01.451Z,7.70
2023-04-07T07:50:27.997Z,7.90
2023-04-07T07:52:54.499Z,8.20
2023-04-07T07:55:21.038Z,8.50
2023-04-07T07:57:47.582Z,8.60
2023-04-07T08:00:14.311Z,8.70
2023-04-07T08:02:40.861Z,8.90
2023-04-07T08:05:07.924Z,9.00
2023-04-07T08:07:34.923Z,9.40
2023-04-07T08:10:01.549Z,9.50
2023-04-07T08:12:28.062Z,9.80
2023-04-07T08:14:54.550Z,9.90
2023-04-07T08:17:21.039Z,10.20
2023-04-07T08:19:47.529Z,10.20
2023-04-07T08:22:14.082Z,10.50
2023-04-07T08:24:41.052Z,10.60
2023-04-07T08:27:07.562Z,10.70
2023-04-07T08:29:34.054Z,10.90
2023-04-07T08:32:00.618Z,11.30
2023-04-07T08:34:27.155Z,11.40
2023-04-07T08:36:53.654Z,11.50
2023-04-07T08:39:20.123Z,11.50
2023-04-07T08:41:49.691Z,11.60
2023-04-07T08:44:17.348Z,11.90
2023-04-07T08:46:46.111Z,12.10
2023-04-07T08:49:13.346Z,12.30
2023-04-07T08:51:46.900Z,12.50
2023-04-07T08:54:21.741Z,12.70
2023-04-07T08:56:48.289Z,12.70
2023-04-07T08:59:24.610Z,12.80
2023-04-07T09:01:52.038Z,13.00
2023-04-07T09:04:19.128Z,13.40
2023-04-07T09:06:45.694Z,13.80
2023-04-07T09:09:13.096Z,14.10
2023-04-07T09:11:40.840Z,14.20
2023-04-07T09:14:07.854Z,14.20
2023-04-07T09:16:35.374Z,14.30
2023-04-07T09:19:01.945Z,14.20
2023-04-07T09:21:51.266Z,13.90
2023-04-07T09:24:26.995Z,13.60
2023-04-07T09:27:18.920Z,13.60
2023-04-07T09:29:47.483Z,13.90
2023-04-07T09:32:40.486Z,14.40
2023-04-07T09:35:07.797Z,14.60
2023-04-07T09:37:34.296Z,14.60
2023-04-07T09:40:00.955Z,14.50
2023-04-07T09:42:31.591Z,14.50
2023-04-07T09:45:02.501Z,14.40
2023-04-07T09:47:31.987Z,14.40
2023-04-07T09:50:01.205Z,14.50
2023-04-07T09:53:02.345Z,14.70
2023-04-07T09:55:30.273Z,14.90
2023-04-07T09:57:57.040Z,14.90
2023-04-07T10:00:24.808Z,15.00
2023-04-07T10:02:52.363Z,15.20
2023-04-07T10:05:21.696Z,15.30
2023-04-07T10:07:48.742Z,15.50
2023-04-07T10:10:15.776Z,15.90
2023-04-07T10:12:42.755Z,16.00
2023-04-07T10:15:15.680Z,16.20
2023-04-07T10:17:49.522Z,16.20
2023-04-07T10:20:20.173Z,16.20
2023-04-07T10:22:50.643Z,16.00
2023-04-07T10:25:21.952Z,15.90
2023-04-07T10:28:03.497Z,15.80
2023-04-07T10:30:32.784Z,15.70
2023-04-07T10:32:59.364Z,15.60
2023-04-07T10:35:26.217Z,15.30
2023-04-07T10:39:44.576Z,15.10
2023-04-07T10:43:36.743Z,15.10
2023-04-07T10:46:03.274Z,14.80
2023-04-07T10:48:32.375Z,14.90
2023-04-07T10:51:31.948Z,14.90
2023-04-07T10:54:26.290Z,14.80
2023-04-07T10:57:26.892Z,14.60
2023-04-07T11:00:15.675Z,14.40
2023-04-07T11:02:42.810Z,14.50
2023-04-07T11:05:21.937Z,14.60
2023-04-07T11:07:58.570Z,14.60
2023-04-07T11:10:25.530Z,14.80
2023-04-07T11:13:01.368Z,14.90
2023-04-07T11:15:27.920Z,15.00
2023-04-07T11:19:52.810Z,14.90
2023-04-07T11:24:48.993Z,15.10
2023-04-07T11:27:16.069Z,15.20
2023-04-07T11:29:43.194Z,15.30
2023-04-07T11:32:12.301Z,15.30
2023-04-07T11:34:39.484Z,15.30
2023-04-07T11:37:27.925Z,15.60
2023-04-07T11:39:56.708Z,15.80
2023-04-07T11:42:37.830Z,15.90
2023-04-07T11:45:08.176Z,16.00
2023-04-07T11:47:37.198Z,16.10
2023-04-07T11:50:04.050Z,16.10
2023-04-07T11:52:47.907Z,16.20
2023-04-07T11:55:23.573Z,16.30
2023-04-07T11:57:51.194Z,16.30
2023-04-07T12:00:19.635Z,16.60
2023-04-07T12:02:46.733Z,16.80
2023-04-07T12:05:13.575Z,17.10
2023-04-07T12:07:41.265Z,17.10
2023-04-07T12:10:22.232Z,17.00
2023-04-07T12:12:49.323Z,16.70
2023-04-07T12:15:16.002Z,16.60
2023-04-07T12:17:47.876Z,16.50
2023-04-07T12:20:15.745Z,16.50
2023-04-07T12:22:42.262Z,16.40
2023-04-07T12:25:08.946Z,16.20
2023-04-07T12:27:42.910Z,16.00
2023-04-07T12:30:10.906Z,15.80
2023-04-07T12:32:37.443Z,15.80
2023-04-07T12:35:04.753Z,16.00
2023-04-07T12:37:32.134Z,16.00
2023-04-07T12:39:59.184Z,16.00
2023-04-07T12:42:25.715Z,16.10
2023-04-07T12:44:52.331Z,16.20
2023-04-07T12:47:18.850Z,16.30
2023-04-07T12:49:45.509Z,16.20
2023-04-07T12:52:12.016Z,16.10
2023-04-07T12:54:38.547Z,16.20
2023-04-07T12:57:05.058Z,16.20
2023-04-07T12:59:31.557Z,16.20
2023-04-07T13:01:58.157Z,16.20
2023-04-07T13:04:27.237Z,16.30
2023-04-07T13:06:53.948Z,16.30
2023-04-07T13:09:20.511Z,16.30
2023-04-07T13:11:47.153Z,16.30
2023-04-07T13:14:13.627Z,16.30
2023-04-07T13:16:40.139Z,16.30
2023-04-07T13:19:08.516Z,16.20
2023-04-07T13:21:46.272Z,16.10
2023-04-07T13:24:14.087Z,16.10
2023-04-07T13:26:40.569Z,16.20
2023-04-07T13:29:07.099Z,16.30
2023-04-07T13:31:33.586Z,16.50
2023-04-07T13:34:00.101Z,16.60
2023-04-07T13:36:27.649Z,16.50
2023-04-07T13:38:54.147Z,16.30
2023-04-07T13:41:20.962Z,16.30
2023-04-07T13:43:47.732Z,16.40
2023-04-07T13:46:27.397Z,16.40
2023-04-07T13:48:55.845Z,16.30
2023-04-07T13:51:22.324Z,16.40
2023-04-07T13:53:49.133Z,16.40
2023-04-07T13:56:15.796Z,16.30
2023-04-07T13:58:42.441Z,16.30
2023-04-07T14:01:09.005Z,16.30
2023-04-07T14:03:35.567Z,16.30
2023-04-07T14:06:02.607Z,16.30
2023-04-07T14:08:29.121Z,16.20
2023-04-07T14:10:55.646Z,16.00
2023-04-07T14:13:22.382Z,16.00
2023-04-07T14:15:50.106Z,15.90
2023-04-07T14:18:16.749Z,15.90
2023-04-07T14:20:43.442Z,16.00
2023-04-07T14:23:10.152Z,16.00
2023-04-07T14:25:36.664Z,16.00
2023-04-07T14:28:03.188Z,16.00
2023-04-07T14:30:30.415Z,16.10
2023-04-07T14:32:56.955Z,16.00
2023-04-07T14:35:23.509Z,15.90
2023-04-07T14:37:51.678Z,15.80
2023-04-07T14:40:21.357Z,15.60
2023-04-07T14:42:48.264Z,15.20
2023-04-07T14:45:15.189Z,15.10
2023-04-07T14:47:41.719Z,15.10
2023-04-07T14:50:08.681Z,15.00
2023-04-07T14:52:35.144Z,15.10
2023-04-07T14:55:01.758Z,15.20
2023-04-07T14:57:28.245Z,15.30
2023-04-07T14:59:54.750Z,15.20
2023-04-07T15:02:21.399Z,15.10
2023-04-07T15:04:48.087Z,15.20
2023-04-07T15:07:14.761Z,15.30
2023-04-07T15:09:41.255Z,15.30
2023-04-07T15:12:07.732Z,15.30
2023-04-07T15:14:34.234Z,15.40
2023-04-07T15:17:00.749Z,15.30
2023-04-07T15:19:27.259Z,15.30
2023-04-07T15:21:53.746Z,15.20
2023-04-07T15:24:21.444Z,15.20
2023-04-07T15:26:48.840Z,15.10
2023-04-07T15:29:15.388Z,15.10
2023-04-07T15:31:41.909Z,15.00
2023-04-07T15:34:08.415Z,15.00
2023-04-07T15:36:34.924Z,15.00
2023-04-07T15:39:05.928Z,14.80
2023-04-07T15:41:33.253Z,14.80
2023-04-07T15:44:01.087Z,14.70
2023-04-07T15:46:28.434Z,14.50
2023-04-07T15:48:55.179Z,14.40
2023-04-07T15:51:21.680Z,14.30
2023-04-07T15:53:48.402Z,14.20
2023-04-07T15:56:15.173Z,14.10
2023-04-07T15:58:41.993Z,14.00
2023-04-07T16:01:08.535Z,13.90
2023-04-07T16:03:35.170Z,13.70
2023-04-07T16:06:01.806Z,13.70
2023-04-07T16:08:28.306Z,13.60
2023-04-07T16:10:54.812Z,13.60
2023-04-07T16:13:21.317Z,13.50
2023-04-07T16:15:47.812Z,13.60
2023-04-07T16:18:14.367Z,13.50
2023-04-07T16:20:40.898Z,13.50
2023-04-07T16:23:07.419Z,13.50
2023-04-07T16:25:35.163Z,13.40
2023-04-07T16:28:01.666Z,13.30
2023-04-07T16:30:28.153Z,13.30
2023-04-07T16:32:54.760Z,13.30
2023-04-07T16:35:21.312Z,13.20
2023-04-07T16:37:49.275Z,13.00
2023-04-07T16:40:15.796Z,12.90
2023-04-07T16:42:42.323Z,12.70
2023-04-07T16:45:09.643Z,12.60
2023-04-07T16:47:38.073Z,12.60
2023-04-07T16:50:05.686Z,12.50
2023-04-07T16:52:32.394Z,12.50
2023-04-07T16:55:00.312Z,12.50
2023-04-07T16:57:26.981Z,12.40
2023-04-07T16:59:53.483Z,12.40
2023-04-07T17:02:20.211Z,12.30
2023-04-07T17:04:46.951Z,12.30
2023-04-07T17:07:13.781Z,12.30
2023-04-07T17:09:40.542Z,12.30
2023-04-07T17:12:07.083Z,12.20
2023-04-07T17:14:33.755Z,12.10
2023-04-07T17:17:01.268Z,12.00
2023-04-07T17:19:28.299Z,11.70
2023-04-07T17:21:55.297Z,11.60
2023-04-07T17:24:22.707Z,11.40
2023-04-07T17:26:49.339Z,11.20
2023-04-07T17:29:17.046Z,11.20
2023-04-07T17:31:43.651Z,11.20
2023-04-07T17:34:11.035Z,11.10
2023-04-07T17:36:37.822Z,10.90
2023-04-07T17:39:04.559Z,10.80
2023-04-07T17:41:34.099Z,10.80
2023-04-07T17:44:00.747Z,10.70
2023-04-07T17:46:27.328Z,10.60
2023-04-07T17:48:54.310Z,10.60
2023-04-07T17:51:20.824Z,10.50
2023-04-07T17:53:47.898Z,10.50
2023-04-07T17:56:14.545Z,10.40
2023-04-07T17:58:41.072Z,10.40
2023-04-07T18:01:10.459Z,10.40
2023-04-07T18:03:37.620Z,10.30
2023-04-07T18:06:07.866Z,10.40
2023-04-07T18:08:34.565Z,10.40
2023-04-07T18:11:01.061Z,10.20
2023-04-07T18:13:27.565Z,10.20
2023-04-07T18:15:54.088Z,10.20
2023-04-07T18:18:20.632Z,10.20
2023-04-07T18:20:49.046Z,10.10
2023-04-07T18:23:15.548Z,10.00
2023-04-07T18:25:42.034Z,9.90
2023-04-07T18:28:08.518Z,9.90
2023-04-07T18:30:35.252Z,9.90
2023-04-07T18:33:01.793Z,9.80
2023-04-07T18:35:28.323Z,9.70
2023-04-07T18:37:55.284Z,9.60
2023-04-07T18:40:21.875Z,9.40
2023-04-07T18:42:48.393Z,9.30
2023-04-07T18:45:14.904Z,9.10
2023-04-07T18:47:41.505Z,9.00
2023-04-07T18:50:08.567Z,8.80
2023-04-07T18:52:35.316Z,8.80
2023-04-07T18:55:02.131Z,8.70
2023-04-07T18:57:28.617Z,8.50
2023-04-07T18:59:55.078Z,8.50
2023-04-07T19:02:21.697Z,8.50
2023-04-07T19:04:48.579Z,8.40
2023-04-07T19:07:15.140Z,8.40
2023-04-07T19:09:41.787Z,8.40
2023-04-07T19:12:08.708Z,8.30
2023-04-07T19:14:35.205Z,8.30
2023-04-07T19:17:01.697Z,8.20
2023-04-07T19:19:28.212Z,8.20
2023-04-07T19:21:54.810Z,8.30
2023-04-07T19:24:21.297Z,8.20
2023-04-07T19:26:47.782Z,8.20
2023-04-07T19:29:14.286Z,8.10
2023-04-07T19:31:40.909Z,8.10
2023-04-07T19:34:07.463Z,8.00
2023-04-07T19:36:33.960Z,8.00
2023-04-07T19:39:00.453Z,8.10
2023-04-07T19:41:29.975Z,8.10
2023-04-07T19:43:56.446Z,8.10
2023-04-07T19:46:23.018Z,8.10
2023-04-07T19:48:49.753Z,8.10
2023-04-07T19:51:16.525Z,8.00
2023-04-07T19:53:43.017Z,8.00
2023-04-07T19:56:10.470Z,8.00
2023-04-07T19:58:37.743Z,8.10
2023-04-07T20:01:04.335Z,8.00
2023-04-07T20:03:31.256Z,8.00
2023-04-07T20:05:58.915Z,7.90
2023-04-07T20:08:25.426Z,7.90
2023-04-07T20:10:52.337Z,7.80
2023-04-07T20:13:19.527Z,7.70
2023-04-07T20:15:46.458Z,7.70
2023-04-07T20:18:13.177Z,7.70
2023-04-07T20:20:39.689Z,7.70
2023-04-07T20:23:06.166Z,7.70
2023-04-07T20:25:36.534Z,7.80
2023-04-07T20:28:03.083Z,7.90
2023-04-07T20:30:29.736Z,7.90
2023-04-07T20:32:56.284Z,7.80
2023-04-07T20:35:22.856Z,7.70
2023-04-07T20:37:49.933Z,7.70
2023-04-07T20:40:16.474Z,7.70
2023-04-07T20:42:45.957Z,7.70
2023-04-07T20:45:12.485Z,7.70
2023-04-07T20:47:39.698Z,7.60
2023-04-07T20:50:07.441Z,7.60
2023-04-07T20:52:38.718Z,7.60
2023-04-07T20:55:06.801Z,7.60
2023-04-07T20:57:33.307Z,7.60
2023-04-07T20:59:59.855Z,7.60
2023-04-07T21:02:26.470Z,7.70
2023-04-07T21:04:53.172Z,7.70
2023-04-07T21:07:19.674Z,7.70
2023-04-07T21:09:46.169Z,7.60
2023-04-07T21:12:13.442Z,7.60
2023-04-07T21:14:39.950Z,7.60
2023-04-07T21:17:08.418Z,7.60
2023-04-07T21:19:35.017Z,7.50
2023-04-07T21:22:01.601Z,7.60
2023-04-07T21:24:29.006Z,7.60
2023-04-07T21:26:55.774Z,7.50
2023-04-07T21:29:22.532Z,7.40
2023-04-07T21:31:49.298Z,7.30
2023-04-07T21:34:16.084Z,7.20
2023-04-07T21:36:42.853Z,7.10
2023-04-07T21:39:09.440Z,7.10
2023-04-07T21:41:36.418Z,7.00
2023-04-07T21:44:02.967Z,6.90
2023-04-07T21:46:29.527Z,6.90
2023-04-07T21:48:56.037Z,6.80
2023-04-07T21:51:22.529Z,6.80
2023-04-07T21:53:48.989Z,6.90
2023-04-07T21:56:15.640Z,7.00
2023-04-07T21:58:42.199Z,7.00
2023-04-07T22:01:08.867Z,7.00
2023-04-07T22:03:35.614Z,6.90
2023-04-07T22:06:02.273Z,6.90
2023-04-07T22:08:28.896Z,6.80
2023-04-07T22:10:56.017Z,6.80
2023-04-07T22:13:22.504Z,6.90
2023-04-07T22:15:49.742Z,6.70
2023-04-07T22:18:16.432Z,6.80
2023-04-07T22:20:43.002Z,6.80
2023-04-07T22:23:09.605Z,6.70
2023-04-07T22:25:36.095Z,6.50
2023-04-07T22:28:02.626Z,6.40
2023-04-07T22:30:29.089Z,6.30
2023-04-07T22:32:55.583Z,6.30
2023-04-07T22:35:22.181Z,6.20
2023-04-07T22:37:48.694Z,6.20
2023-04-07T22:40:15.327Z,6.30
2023-04-07T22:42:41.784Z,6.20
2023-04-07T22:45:09.379Z,6.20
2023-04-07T22:47:36.214Z,6.10
2023-04-07T22:50:03.053Z,6.10
2023-04-07T22:52:29.587Z,6.10
2023-04-07T22:54:57.072Z,6.00
2023-04-07T22:57:24.890Z,6.00
2023-04-07T22:59:51.359Z,6.00
2023-04-07T23:02:18.048Z,6.00
2023-04-07T23:04:44.639Z,5.90
2023-04-07T23:07:11.165Z,5.90
2023-04-07T23:09:37.658Z,6.00
2023-04-07T23:12:04.340Z,6.00
2023-04-07T23:14:31.113Z,6.00
2023-04-07T23:16:57.862Z,6.10
2023-04-07T23:19:24.735Z,6.10
2023-04-07T23:21:51.588Z,6.10
2023-04-07T23:24:18.082Z,6.10
2023-04-07T23:26:44.573Z,6.10
2023-04-07T23:29:11.266Z,6.20
2023-04-07T23:31:37.806Z,6.20
2023-04-07T23:34:04.482Z,6.20
2023-04-07T23:36:30.974Z,6.10
2023-04-07T23:38:57.495Z,6.10
2023-04-07T23:41:24.054Z,6.10
2023-04-07T23:43:50.875Z,6.10
2023-04-07T23:46:17.475Z,6.20
2023-04-07T23:48:43.990Z,6.30
2023-04-07T23:51:10.494Z,6.30
2023-04-07T23:53:36.961Z,6.30
2023-04-07T23:56:03.509Z,6.30
2023-04-07T23:58:30.201Z,6.40
